createdAt,value
2019-04-01T00:01:28.947Z,5.10
2019-04-01T00:03:57.393Z,5.00
2019-04-01T00:06:25.835Z,5.10
2019-04-01T00:08:54.296Z,5.30
2019-04-01T00:11:22.761Z,5.40
2019-04-01T00:13:51.194Z,5.30
2019-04-01T00:16:19.621Z,5.40
2019-04-01T00:19:02.073Z,5.40
2019-04-01T00:21:18.267Z,5.30
2019-04-01T00:23:46.880Z,5.30
2019-04-01T00:26:15.333Z,5.20
2019-04-01T00:28:43.955Z,5.20
2019-04-01T00:31:12.417Z,5.00
2019-04-01T00:33:40.958Z,4.90
2019-04-01T00:36:09.379Z,4.70
2019-04-01T00:38:38.058Z,4.60
2019-04-01T00:41:06.482Z,4.70
2019-04-01T00:43:36.565Z,4.70
2019-04-01T00:46:12.608Z,4.70
2019-04-01T00:48:41.267Z,4.60
2019-04-01T00:51:09.749Z,4.60
2019-04-01T00:53:38.191Z,4.40
2019-04-01T00:56:06.664Z,4.40
2019-04-01T00:58:35.114Z,4.50
2019-04-01T01:01:03.617Z,4.40
2019-04-01T01:03:32.372Z,4.40
2019-04-01T01:06:00.789Z,4.40
2019-04-01T01:08:29.245Z,4.30
2019-04-01T01:10:57.668Z,4.30
2019-04-01T01:13:26.106Z,4.30
2019-04-01T01:15:56.034Z,4.30
2019-04-01T01:18:24.542Z,4.20
2019-04-01T01:20:53.077Z,4.10
2019-04-01T01:23:21.501Z,4.10
2019-04-01T01:25:49.938Z,4.00
2019-04-01T01:28:19.758Z,4.00
2019-04-01T01:30:48.265Z,4.20
2019-04-01T01:33:16.690Z,4.00
2019-04-01T01:35:45.122Z,4.00
2019-04-01T01:38:13.544Z,4.00
2019-04-01T01:40:43.621Z,3.90
2019-04-01T01:43:12.257Z,3.90
2019-04-01T01:45:41.286Z,3.80
2019-04-01T01:48:09.727Z,3.80
2019-04-01T01:50:38.234Z,3.80
2019-04-01T01:53:06.662Z,3.80
2019-04-01T01:55:35.090Z,3.80
2019-04-01T01:58:03.525Z,3.80
2019-04-01T02:00:32.635Z,3.70
2019-04-01T02:03:01.110Z,3.80
2019-04-01T02:05:30.882Z,3.70
2019-04-01T02:07:59.333Z,3.80
2019-04-01T02:10:27.773Z,3.70
2019-04-01T02:12:56.198Z,3.80
2019-04-01T02:15:24.639Z,3.80
2019-04-01T02:17:53.057Z,3.80
2019-04-01T02:20:21.650Z,3.70
2019-04-01T02:22:50.122Z,3.60
2019-04-01T02:25:18.570Z,3.70
2019-04-01T02:27:47.002Z,3.70
2019-04-01T02:30:15.446Z,3.60
2019-04-01T02:32:43.885Z,3.50
2019-04-01T02:35:12.655Z,3.40
2019-04-01T02:37:41.126Z,3.40
2019-04-01T02:40:09.702Z,3.30
2019-04-01T02:42:38.203Z,3.30
2019-04-01T02:45:07.367Z,3.30
2019-04-01T02:47:35.833Z,3.40
2019-04-01T02:50:06.283Z,3.20
2019-04-01T02:52:34.722Z,3.10
2019-04-01T02:55:06.733Z,3.20
2019-04-01T02:57:33.893Z,3.20
2019-04-01T03:00:02.854Z,3.30
2019-04-01T03:02:31.287Z,3.40
2019-04-01T03:04:59.728Z,3.50
2019-04-01T03:07:28.170Z,3.40
2019-04-01T03:09:56.778Z,3.30
2019-04-01T03:12:25.229Z,3.30
2019-04-01T03:14:53.666Z,3.20
2019-04-01T03:17:22.235Z,3.20
2019-04-01T03:19:50.672Z,3.30
2019-04-01T03:22:19.479Z,3.30
2019-04-01T03:24:47.897Z,3.30
2019-04-01T03:27:17.500Z,3.30
2019-04-01T03:29:46.440Z,3.30
2019-04-01T03:32:14.917Z,3.20
2019-04-01T03:34:43.404Z,3.20
2019-04-01T03:37:12.085Z,3.30
2019-04-01T03:39:40.515Z,3.30
2019-04-01T03:42:09.091Z,3.20
2019-04-01T03:44:37.533Z,3.10
2019-04-01T03:47:05.953Z,3.10
2019-04-01T03:49:34.442Z,3.10
2019-04-01T03:52:04.523Z,3.00
2019-04-01T03:54:33.128Z,3.00
2019-04-01T03:57:01.629Z,3.00
2019-04-01T03:59:30.146Z,3.10
2019-04-01T04:01:58.581Z,3.10
2019-04-01T04:04:27.035Z,3.10
2019-04-01T04:06:55.450Z,3.10
2019-04-01T04:09:23.893Z,3.10
2019-04-01T04:11:52.312Z,3.10
2019-04-01T04:14:20.751Z,3.10
2019-04-01T04:16:49.178Z,3.10
2019-04-01T04:19:17.607Z,2.90
2019-04-01T04:21:46.038Z,3.00
2019-04-01T04:24:14.557Z,2.80
2019-04-01T04:26:43.009Z,2.80
2019-04-01T04:29:11.455Z,2.90
2019-04-01T04:31:39.873Z,2.90
2019-04-01T04:34:08.323Z,2.90
2019-04-01T04:36:36.751Z,3.00
2019-04-01T04:39:06.069Z,2.90
2019-04-01T04:41:34.486Z,2.80
2019-04-01T04:44:03.099Z,2.80
2019-04-01T04:46:31.557Z,2.80
2019-04-01T04:49:00.002Z,2.80
2019-04-01T04:51:28.492Z,2.90
2019-04-01T04:53:56.951Z,2.90
2019-04-01T04:56:25.377Z,3.00
2019-04-01T04:58:53.806Z,3.00
2019-04-01T05:01:22.247Z,2.90
2019-04-01T05:03:50.683Z,3.00
2019-04-01T05:06:19.345Z,3.00
2019-04-01T05:08:47.778Z,2.90
2019-04-01T05:11:16.223Z,3.00
2019-04-01T05:13:44.654Z,3.00
2019-04-01T05:16:13.099Z,3.00
2019-04-01T05:18:41.509Z,3.00
2019-04-01T05:21:11.206Z,2.90
2019-04-01T05:23:40.777Z,3.00
2019-04-01T05:26:11.057Z,3.10
2019-04-01T05:28:43.404Z,3.10
2019-04-01T05:31:14.895Z,3.20
2019-04-01T05:33:55.355Z,3.10
2019-04-01T05:36:17.138Z,3.20
2019-04-01T05:38:45.839Z,3.30
2019-04-01T05:41:14.277Z,3.50
2019-04-01T05:43:43.754Z,3.30
2019-04-01T05:46:12.286Z,3.20
2019-04-01T05:48:40.998Z,3.20
2019-04-01T05:51:09.434Z,3.20
2019-04-01T05:53:37.993Z,3.40
2019-04-01T05:56:07.693Z,3.30
2019-04-01T05:58:36.590Z,3.30
2019-04-01T06:01:06.914Z,3.40
2019-04-01T06:03:35.519Z,3.40
2019-04-01T06:06:04.464Z,3.40
2019-04-01T06:08:33.127Z,3.50
2019-04-01T06:11:02.090Z,3.60
2019-04-01T06:13:30.550Z,3.70
2019-04-01T06:15:59.098Z,3.90
2019-04-01T06:18:28.673Z,4.10
2019-04-01T06:20:57.090Z,4.20
2019-04-01T06:23:25.555Z,4.30
2019-04-01T06:25:54.038Z,4.30
2019-04-01T06:28:22.582Z,4.50
2019-04-01T06:30:51.393Z,5.40
2019-04-01T06:33:19.845Z,5.20
2019-04-01T06:35:48.315Z,5.30
2019-04-01T06:38:16.758Z,5.00
2019-04-01T06:40:45.182Z,4.90
2019-04-01T06:43:13.818Z,4.90
2019-04-01T06:45:43.664Z,4.90
2019-04-01T06:48:12.105Z,4.90
2019-04-01T06:50:40.533Z,5.00
2019-04-01T06:53:08.986Z,5.10
2019-04-01T06:55:37.443Z,5.20
2019-04-01T06:58:06.153Z,5.20
2019-04-01T07:00:34.988Z,5.40
2019-04-01T07:03:04.878Z,5.40
2019-04-01T07:05:33.317Z,5.60
2019-04-01T07:08:01.757Z,5.70
2019-04-01T07:10:30.617Z,5.80
2019-04-01T07:12:59.033Z,5.80
2019-04-01T07:15:27.636Z,6.00
2019-04-01T07:17:57.873Z,6.00
2019-04-01T07:20:26.486Z,6.00
2019-04-01T07:22:55.190Z,6.20
2019-04-01T07:25:23.621Z,6.30
2019-04-01T07:27:52.055Z,6.30
2019-04-01T07:30:20.954Z,6.40
2019-04-01T07:32:49.399Z,6.30
2019-04-01T07:35:17.893Z,6.10
2019-04-01T07:37:46.335Z,6.60
2019-04-01T07:40:15.065Z,6.80
2019-04-01T07:42:43.501Z,6.70
2019-04-01T07:45:11.960Z,6.70
2019-04-01T07:47:40.396Z,6.90
2019-04-01T07:50:12.342Z,7.10
2019-04-01T07:52:40.965Z,7.00
2019-04-01T07:55:09.926Z,7.10
2019-04-01T07:57:38.361Z,7.20
2019-04-01T08:00:09.138Z,7.20
2019-04-01T08:02:37.566Z,7.40
2019-04-01T08:05:06.515Z,7.50
2019-04-01T08:07:35.020Z,7.30
2019-04-01T08:10:05.397Z,7.40
2019-04-01T08:12:34.193Z,7.70
2019-04-01T08:15:03.077Z,7.80
2019-04-01T08:17:32.379Z,7.60
2019-04-01T08:20:01.803Z,7.80
2019-04-01T08:22:30.225Z,7.90
2019-04-01T08:24:58.661Z,7.70
2019-04-01T08:27:27.086Z,7.70
2019-04-01T08:29:55.513Z,7.70
2019-04-01T08:32:23.958Z,7.80
2019-04-01T08:34:52.672Z,7.90
2019-04-01T08:37:21.110Z,8.20
2019-04-01T08:39:49.910Z,8.20
2019-04-01T08:42:18.346Z,8.10
2019-04-01T08:44:46.769Z,8.30
2019-04-01T08:47:15.293Z,8.30
2019-04-01T08:49:43.984Z,8.20
2019-04-01T08:52:12.482Z,8.40
2019-04-01T08:54:41.453Z,8.50
2019-04-01T08:57:09.888Z,8.40
2019-04-01T08:59:38.310Z,8.40
2019-04-01T09:02:17.556Z,8.40
2019-04-01T09:04:38.110Z,8.40
2019-04-01T09:07:09.297Z,8.40
2019-04-01T09:09:38.198Z,8.60
2019-04-01T09:12:06.652Z,8.60
2019-04-01T09:14:35.921Z,8.50
2019-04-01T09:17:04.375Z,8.60
2019-04-01T09:19:32.804Z,8.60
2019-04-01T09:22:01.253Z,8.70
2019-04-01T09:24:29.682Z,8.80
2019-04-01T09:26:58.370Z,8.70
2019-04-01T09:29:26.790Z,8.80
2019-04-01T09:31:55.214Z,8.80
2019-04-01T09:34:23.666Z,8.70
2019-04-01T09:36:52.101Z,8.90
2019-04-01T09:39:20.539Z,9.00
2019-04-01T09:41:48.962Z,8.90
2019-04-01T09:44:17.405Z,9.00
2019-04-01T09:46:48.841Z,9.20
2019-04-01T09:49:16.169Z,9.20
2019-04-01T09:51:48.819Z,9.10
2019-04-01T09:54:14.754Z,9.20
2019-04-01T09:56:43.515Z,9.20
2019-04-01T09:59:11.949Z,9.20
2019-04-01T10:01:40.548Z,9.20
2019-04-01T10:04:08.987Z,9.30
2019-04-01T10:06:37.409Z,9.30
2019-04-01T10:09:08.183Z,9.30
2019-04-01T10:11:36.620Z,9.50
2019-04-01T10:14:05.321Z,9.50
2019-04-01T10:16:33.754Z,9.30
2019-04-01T10:19:05.242Z,9.30
2019-04-01T10:21:33.741Z,9.20
2019-04-01T10:24:02.215Z,9.40
2019-04-01T10:26:30.638Z,9.40
2019-04-01T10:28:59.075Z,9.40
2019-04-01T10:31:27.494Z,9.50
2019-04-01T10:33:55.953Z,9.50
2019-04-01T10:36:24.458Z,9.60
2019-04-01T10:38:52.891Z,9.60
2019-04-01T10:41:21.356Z,9.70
2019-04-01T10:43:49.846Z,9.80
2019-04-01T10:46:18.273Z,9.80
2019-04-01T10:48:46.766Z,9.70
2019-04-01T10:51:15.350Z,9.70
2019-04-01T10:53:43.862Z,9.50
2019-04-01T10:56:12.320Z,9.70
2019-04-01T10:58:40.839Z,9.90
2019-04-01T11:01:09.343Z,9.80
2019-04-01T11:03:37.852Z,9.90
2019-04-01T11:06:06.468Z,10.00
2019-04-01T11:08:35.098Z,10.10
2019-04-01T11:11:03.749Z,10.20
2019-04-01T11:13:32.437Z,10.30
2019-04-01T11:16:00.883Z,10.20
2019-04-01T11:18:29.314Z,10.20
2019-04-01T11:20:57.772Z,10.30
2019-04-01T11:23:26.201Z,10.20
2019-04-01T11:25:54.634Z,10.20
2019-04-01T11:28:23.078Z,10.00
2019-04-01T11:30:51.571Z,10.10
2019-04-01T11:33:20.070Z,10.20
2019-04-01T11:35:48.778Z,10.30
2019-04-01T11:38:17.230Z,10.40
2019-04-01T11:40:45.863Z,10.40
2019-04-01T11:43:14.542Z,10.50
2019-04-01T11:45:43.076Z,10.60
2019-04-01T11:48:11.622Z,10.70
2019-04-01T11:50:40.255Z,10.70
2019-04-01T11:53:08.760Z,10.60
2019-04-01T11:55:37.200Z,10.70
2019-04-01T11:58:05.634Z,10.70
2019-04-01T12:00:34.070Z,10.80
2019-04-01T12:03:02.882Z,10.90
2019-04-01T12:05:31.358Z,11.00
2019-04-01T12:07:59.981Z,11.00
2019-04-01T12:10:28.406Z,11.10
2019-04-01T12:12:56.851Z,11.00
2019-04-01T12:15:25.353Z,11.00
2019-04-01T12:17:53.794Z,11.00
2019-04-01T12:20:22.227Z,11.00
2019-04-01T12:22:50.684Z,11.00
2019-04-01T12:25:19.136Z,11.10
2019-04-01T12:27:47.600Z,11.20
2019-04-01T12:30:16.453Z,11.20
2019-04-01T12:32:44.997Z,11.10
2019-04-01T12:35:13.878Z,11.00
2019-04-01T12:37:42.330Z,11.00
2019-04-01T12:40:11.204Z,11.10
2019-04-01T12:42:39.904Z,11.20
2019-04-01T12:45:08.745Z,11.00
2019-04-01T12:47:38.142Z,11.00
2019-04-01T12:50:07.206Z,11.30
2019-04-01T12:52:35.657Z,11.20
2019-04-01T12:55:06.121Z,11.10
2019-04-01T12:57:34.569Z,11.00
2019-04-01T13:00:03.172Z,11.00
2019-04-01T13:02:31.621Z,11.10
2019-04-01T13:05:00.068Z,11.30
2019-04-01T13:07:28.524Z,11.40
2019-04-01T13:09:56.966Z,11.50
2019-04-01T13:12:27.275Z,11.30
2019-04-01T13:14:55.782Z,11.20
2019-04-01T13:17:24.517Z,11.30
2019-04-01T13:19:52.970Z,11.40
2019-04-01T13:22:21.395Z,11.60
2019-04-01T13:24:49.834Z,11.60
2019-04-01T13:27:20.965Z,11.70
2019-04-01T13:29:49.403Z,11.60
2019-04-01T13:32:17.830Z,11.50
2019-04-01T13:34:46.281Z,11.60
2019-04-01T13:37:14.705Z,11.60
2019-04-01T13:39:43.149Z,11.50
2019-04-01T13:42:11.643Z,11.50
2019-04-01T13:44:40.083Z,11.60
2019-04-01T13:47:10.912Z,11.80
2019-04-01T13:49:39.353Z,11.80
2019-04-01T13:52:07.777Z,11.80
2019-04-01T13:54:36.214Z,11.90
2019-04-01T13:57:04.823Z,11.90
2019-04-01T13:59:48.065Z,11.80
2019-04-01T14:02:03.414Z,11.90
2019-04-01T14:04:31.865Z,12.00
2019-04-01T14:07:00.297Z,12.20
2019-04-01T14:09:30.786Z,12.50
2019-04-01T14:11:58.886Z,12.60
2019-04-01T14:14:27.365Z,12.70
2019-04-01T14:16:55.865Z,12.80
2019-04-01T14:19:24.294Z,12.80
2019-04-01T14:21:52.916Z,12.70
2019-04-01T14:24:21.346Z,12.70
2019-04-01T14:26:49.805Z,12.80
2019-04-01T14:29:18.286Z,12.90
2019-04-01T14:31:46.744Z,13.10
2019-04-01T14:34:22.876Z,13.10
2019-04-01T14:36:45.336Z,13.20
2019-04-01T14:39:13.835Z,13.40
2019-04-01T14:41:42.282Z,13.70
2019-04-01T14:44:10.729Z,13.80
2019-04-01T14:46:39.170Z,13.80
2019-04-01T14:49:07.606Z,13.70
2019-04-01T14:51:36.222Z,14.00
2019-04-01T14:54:06.658Z,14.30
2019-04-01T14:56:35.137Z,14.40
2019-04-01T14:59:03.576Z,14.60
2019-04-01T15:01:32.013Z,14.70
2019-04-01T15:04:00.472Z,14.50
2019-04-01T15:06:28.957Z,14.70
2019-04-01T15:08:57.389Z,14.20
2019-04-01T15:11:25.833Z,14.10
2019-04-01T15:13:54.260Z,13.40
2019-04-01T15:16:23.335Z,13.20
2019-04-01T15:18:51.758Z,12.70
2019-04-01T15:21:21.781Z,12.80
2019-04-01T15:23:53.182Z,12.60
2019-04-01T15:26:20.595Z,12.40
2019-04-01T15:28:49.030Z,12.30
2019-04-01T15:31:17.466Z,12.30
2019-04-01T15:33:46.277Z,12.10
2019-04-01T15:36:14.758Z,12.20
2019-04-01T15:38:43.206Z,12.20
2019-04-01T15:41:11.717Z,12.50
2019-04-01T15:43:41.020Z,12.20
2019-04-01T15:46:09.971Z,12.00
2019-04-01T15:48:38.402Z,12.10
2019-04-01T15:51:07.724Z,12.10
2019-04-01T15:53:36.669Z,12.00
2019-04-01T15:56:05.111Z,12.00
2019-04-01T15:58:33.612Z,11.80
2019-04-01T16:01:03.035Z,11.80
2019-04-01T16:03:31.466Z,11.60
2019-04-01T16:05:59.897Z,11.80
2019-04-01T16:08:28.325Z,11.80
2019-04-01T16:10:56.794Z,11.70
2019-04-01T16:13:25.272Z,11.90
2019-04-01T16:15:53.812Z,12.00
2019-04-01T16:18:22.311Z,12.20
2019-04-01T16:20:50.783Z,12.40
2019-04-01T16:23:20.341Z,12.30
2019-04-01T16:25:48.782Z,12.20
2019-04-01T16:28:19.216Z,12.00
2019-04-01T16:30:47.433Z,11.90
2019-04-01T16:33:28.435Z,11.80
2019-04-01T16:35:56.970Z,11.80
2019-04-01T16:38:25.474Z,11.70
2019-04-01T16:40:53.938Z,11.80
2019-04-01T16:43:22.405Z,11.70
2019-04-01T16:45:50.851Z,11.50
2019-04-01T16:48:19.294Z,11.40
2019-04-01T16:50:47.846Z,11.30
2019-04-01T16:53:16.280Z,11.30
2019-04-01T16:55:44.734Z,11.30
2019-04-01T16:58:13.230Z,11.30
2019-04-01T17:00:41.674Z,11.20
2019-04-01T17:03:13.361Z,11.20
2019-04-01T17:05:40.275Z,11.20
2019-04-01T17:08:10.141Z,11.20
2019-04-01T17:10:38.823Z,11.20
2019-04-01T17:13:08.134Z,11.10
2019-04-01T17:15:36.885Z,11.00
2019-04-01T17:18:05.316Z,11.00
2019-04-01T17:20:33.843Z,11.10
2019-04-01T17:23:02.274Z,11.00
2019-04-01T17:25:30.716Z,10.80
2019-04-01T17:27:59.145Z,10.70
2019-04-01T17:30:28.646Z,10.80
2019-04-01T17:32:57.223Z,10.80
2019-04-01T17:35:25.980Z,10.80
2019-04-01T17:37:54.919Z,10.80
2019-04-01T17:40:23.350Z,10.70
2019-04-01T17:42:51.789Z,10.60
2019-04-01T17:45:35.136Z,10.50
2019-04-01T17:48:04.601Z,10.50
2019-04-01T17:50:34.025Z,10.50
2019-04-01T17:53:03.302Z,10.40
2019-04-01T17:55:31.774Z,10.40
2019-04-01T17:58:00.762Z,10.40
2019-04-01T18:00:31.025Z,10.30
2019-04-01T18:03:00.949Z,10.40
2019-04-01T18:05:29.410Z,10.30
2019-04-01T18:07:57.890Z,10.30
2019-04-01T18:10:28.135Z,10.20
2019-04-01T18:12:56.558Z,10.40
2019-04-01T18:15:24.999Z,10.20
2019-04-01T18:17:53.441Z,10.20
2019-04-01T18:20:21.885Z,10.30
2019-04-01T18:22:50.654Z,10.40
2019-04-01T18:25:19.105Z,10.40
2019-04-01T18:27:47.600Z,10.20
2019-04-01T18:30:16.661Z,10.30
2019-04-01T18:32:45.152Z,10.30
2019-04-01T18:35:14.022Z,10.20
2019-04-01T18:37:42.458Z,10.20
2019-04-01T18:40:11.438Z,10.10
2019-04-01T18:42:39.928Z,10.20
2019-04-01T18:45:08.800Z,9.90
2019-04-01T18:47:38.875Z,9.80
2019-04-01T18:50:07.967Z,9.80
2019-04-01T18:52:37.343Z,9.70
2019-04-01T18:55:08.043Z,9.60
2019-04-01T18:57:36.911Z,9.60
2019-04-01T19:00:08.590Z,9.50
2019-04-01T19:02:37.118Z,9.60
2019-04-01T19:05:05.815Z,9.60
2019-04-01T19:07:35.483Z,9.50
2019-04-01T19:10:06.952Z,9.60
2019-04-01T19:12:36.413Z,9.60
2019-04-01T19:15:09.895Z,9.60
2019-04-01T19:17:38.282Z,9.40
2019-04-01T19:20:07.853Z,9.40
2019-04-01T19:22:36.626Z,9.50
2019-04-01T19:25:09.016Z,9.40
2019-04-01T19:27:37.445Z,9.30
2019-04-01T19:30:07.194Z,9.30
2019-04-01T19:32:35.626Z,9.30
2019-04-01T19:35:09.209Z,9.40
2019-04-01T19:37:36.333Z,9.40
2019-04-01T19:40:06.309Z,9.30
2019-04-01T19:42:35.675Z,9.30
2019-04-01T19:45:08.638Z,9.20
2019-04-01T19:47:37.073Z,9.20
2019-04-01T19:50:07.839Z,9.20
2019-04-01T19:52:36.273Z,9.10
2019-04-01T19:55:06.745Z,9.00
2019-04-01T19:57:35.406Z,9.10
2019-04-01T20:00:08.343Z,9.10
2019-04-01T20:02:36.775Z,9.10
2019-04-01T20:05:08.876Z,9.00
2019-04-01T20:07:38.808Z,9.00
2019-04-01T20:10:08.426Z,9.00
2019-04-01T20:12:36.904Z,8.90
2019-04-01T20:15:12.158Z,8.90
2019-04-01T20:17:41.139Z,8.80
2019-04-01T20:20:10.117Z,8.80
2019-04-01T20:22:38.555Z,8.80
2019-04-01T20:25:08.742Z,8.70
2019-04-01T20:27:37.170Z,8.60
2019-04-01T20:30:10.082Z,8.50
2019-04-01T20:32:38.503Z,8.50
2019-04-01T20:35:22.368Z,8.50
2019-04-01T20:37:39.241Z,8.10
2019-04-01T20:40:09.142Z,8.50
2019-04-01T20:42:37.582Z,8.40
2019-04-01T20:45:10.939Z,8.40
2019-04-01T20:47:38.822Z,8.40
2019-04-01T20:50:10.129Z,8.40
2019-04-01T20:52:38.739Z,8.40
2019-04-01T20:55:07.759Z,8.30
2019-04-01T20:57:36.214Z,8.20
2019-04-01T21:00:07.208Z,8.00
2019-04-01T21:02:35.650Z,8.10
2019-04-01T21:05:07.055Z,8.00
2019-04-01T21:07:35.488Z,8.00
2019-04-01T21:10:07.003Z,8.10
2019-04-01T21:12:36.137Z,8.10
2019-04-01T21:15:06.966Z,7.90
2019-04-01T21:17:36.843Z,7.80
2019-04-01T21:20:08.700Z,7.90
2019-04-01T21:22:37.403Z,7.90
2019-04-01T21:25:07.289Z,7.90
2019-04-01T21:27:36.021Z,7.90
2019-04-01T21:30:09.578Z,8.00
2019-04-01T21:32:38.286Z,8.00
2019-04-01T21:35:09.015Z,7.90
2019-04-01T21:37:38.048Z,7.90
2019-04-01T21:40:07.717Z,7.80
2019-04-01T21:48:40.560Z,7.80
2019-04-01T21:51:08.993Z,7.90
2019-04-01T21:53:37.427Z,7.90
2019-04-01T21:56:05.850Z,8.10
2019-04-01T21:58:34.277Z,8.00
2019-04-01T22:01:02.703Z,8.00
2019-04-01T22:03:31.137Z,7.90
2019-04-01T22:05:59.561Z,7.80
2019-04-01T22:08:27.992Z,7.80
2019-04-01T22:10:56.411Z,7.80
2019-04-01T22:13:27.234Z,7.70
2019-04-01T22:15:59.011Z,7.70
2019-04-01T22:18:27.441Z,7.80
2019-04-01T22:20:56.243Z,7.80
2019-04-01T22:23:24.672Z,7.80
2019-04-01T22:25:53.192Z,7.70
2019-04-01T22:28:22.219Z,7.70
2019-04-01T22:30:51.222Z,7.70
2019-04-01T22:33:19.655Z,7.80
2019-04-01T22:35:48.242Z,7.70
2019-04-01T22:38:25.000Z,7.70
2019-04-01T22:40:46.817Z,7.60
2019-04-01T22:43:15.241Z,7.60
2019-04-01T22:45:43.669Z,7.60
2019-04-01T22:48:12.106Z,7.50
2019-04-01T22:50:40.517Z,7.50
2019-04-01T22:53:08.961Z,7.40
2019-04-01T22:55:37.417Z,7.40
2019-04-01T22:58:06.710Z,7.30
2019-04-01T23:00:35.138Z,7.40
2019-04-01T23:03:03.569Z,7.40
2019-04-01T23:05:31.996Z,7.30
2019-04-01T23:08:02.192Z,7.30
2019-04-01T23:10:30.574Z,7.30
2019-04-01T23:12:59.001Z,7.20
2019-04-01T23:15:27.425Z,7.20
2019-04-01T23:17:57.099Z,7.30
2019-04-01T23:20:25.559Z,7.10
2019-04-01T23:22:53.973Z,7.10
2019-04-01T23:25:22.401Z,7.10
2019-04-01T23:27:51.008Z,7.10
2019-04-01T23:30:20.447Z,7.20
2019-04-01T23:32:49.504Z,7.30
2019-04-01T23:35:19.053Z,7.20
2019-04-01T23:37:47.485Z,6.90
2019-04-01T23:40:15.989Z,6.90
2019-04-01T23:42:44.414Z,6.90
2019-04-01T23:45:13.703Z,6.90
2019-04-01T23:47:42.117Z,7.00
2019-04-01T23:50:10.984Z,7.00
2019-04-01T23:52:39.413Z,6.90
2019-04-01T23:55:08.385Z,6.80
2019-04-01T23:57:36.789Z,7.00
